Time;durP1;ratioP1;P1;durP2;ratioP2;P2;SDS_P1;SDS_P2;PMS_P1;PMS_P2;Temp;Humidity;BMP_temperature;BMP_pressure;BME280_temperature;BME280_humidity;BME280_pressure;Samples;Min_cycle;Max_cycle;Signal;HPM_P1;HPM_P2
2023/09/18 00:00:35;;;;;;;21.00;10.80;;;;;;;17.17;59.03;100227.89;79733;1306;3011844;-71
2023/09/18 00:03:03;;;;;;;16.30;10.00;;;;;;;17.13;59.29;100228.52;78604;1298;3052426;-71
2023/09/18 00:05:32;;;;;;;16.90;10.90;;;;;;;17.08;59.17;100224.27;79737;1298;3012857;-67
2023/09/18 00:07:58;;;;;;;20.50;10.70;;;;;;;17.04;59.58;100221.88;79441;1298;3011589;-71
2023/09/18 00:10:26;;;;;;;16.20;10.50;;;;;;;17.02;59.26;100222.79;78443;1297;3049624;-71
2023/09/18 00:12:53;;;;;;;13.90;9.60;;;;;;;17.00;59.59;100225.45;79534;1296;3018288;-74
2023/09/18 00:15:19;;;;;;;17.50;10.30;;;;;;;16.98;59.58;100225.20;79764;1298;3012901;-71
2023/09/18 00:17:49;;;;;;;16.70;9.90;;;;;;;16.93;59.76;100223.63;78532;1299;3027260;-71
2023/09/18 00:20:17;;;;;;;17.00;10.00;;;;;;;16.88;60.24;100222.77;79758;1298;3013027;-70
2023/09/18 00:22:47;;;;;;;19.20;10.40;;;;;;;16.85;60.67;100224.23;79193;1298;3012202;-73
2023/09/18 00:25:15;;;;;;;16.70;11.60;;;;;;;16.81;60.86;100219.85;79769;1297;3012875;-71
2023/09/18 00:27:41;;;;;;;20.50;11.50;;;;;;;16.78;60.99;100220.10;79715;1297;3011804;-73
2023/09/18 00:30:11;;;;;;;18.50;12.10;;;;;;;16.72;61.25;100223.03;78569;1297;3050553;-73
2023/09/18 00:32:38;;;;;;;21.10;12.20;;;;;;;16.67;61.74;100222.14;79545;1301;3011796;-74
2023/09/18 00:35:04;;;;;;;21.90;12.50;;;;;;;16.63;62.06;100223.54;79799;1296;3011753;-69
2023/09/18 00:37:32;;;;;;;21.70;12.50;;;;;;;16.59;62.38;100227.36;78570;1298;3051812;-74
2023/09/18 00:40:00;;;;;;;18.70;12.00;;;;;;;16.53;63.06;100227.97;79840;1298;3011969;-70
2023/09/18 00:42:27;;;;;;;23.60;13.80;;;;;;;16.48;63.40;100226.39;79547;1298;3011710;-73
2023/09/18 00:44:55;;;;;;;20.00;12.00;;;;;;;16.45;63.31;100229.97;78583;1297;3050210;-69
2023/09/18 00:47:23;;;;;;;24.30;12.40;;;;;;;16.42;63.25;100230.00;79771;1299;3013205;-68
2023/09/18 00:49:50;;;;;;;21.70;11.40;;;;;;;16.44;62.34;100227.89;79610;1299;3013458;-70
2023/09/18 00:52:18;;;;;;;17.70;11.60;;;;;;;16.45;62.28;100228.16;78326;1298;3049999;-75
2023/09/18 00:54:44;;;;;;;22.80;12.30;;;;;;;16.43;62.66;100231.00;79561;1302;3013925;-72
2023/09/18 00:57:10;;;;;;;24.50;13.50;;;;;;;16.38;63.34;100230.96;79623;1296;3011652;-71
2023/09/18 00:59:38;;;;;;;23.40;12.40;;;;;;;16.33;63.76;100230.67;78250;1300;3026163;-72
2023/09/18 01:02:05;;;;;;;23.20;12.50;;;;;;;16.28;64.32;100232.41;79416;1301;3014647;-69
2023/09/18 01:04:32;;;;;;;21.50;12.30;;;;;;;16.24;64.44;100230.75;79598;1296;3011984;-71
2023/09/18 01:07:04;;;;;;;23.50;13.10;;;;;;;16.21;64.79;100228.17;78391;1308;3051634;-68
2023/09/18 01:09:32;;;;;;;33.30;16.50;;;;;;;16.15;65.89;100226.44;79658;1294;3011544;-73
2023/09/18 01:12:12;;;;;;;30.60;15.70;;;;;;;16.11;65.70;100225.33;78547;1299;3049524;-71
2023/09/18 01:14:47;;;;;;;35.00;16.50;;;;;;;16.06;66.69;100220.91;78317;1296;3053230;-69
2023/09/18 01:17:15;;;;;;;31.40;17.40;;;;;;;16.04;67.04;100224.63;79723;1300;3011345;-68
2023/09/18 01:19:45;;;;;;;29.20;15.70;;;;;;;15.99;67.59;100225.49;78356;1300;3053408;-72
2023/09/18 01:22:14;;;;;;;25.80;15.80;;;;;;;15.95;67.27;100224.69;79508;1301;3013723;-71
2023/09/18 01:24:42;;;;;;;25.60;14.70;;;;;;;15.89;67.50;100221.05;78446;1295;3070610;-74
2023/09/18 01:27:10;;;;;;;26.70;14.20;;;;;;;15.86;66.94;100221.27;79452;1296;3013136;-69
2023/09/18 01:29:36;;;;;;;26.40;14.30;;;;;;;15.84;66.39;100221.57;79505;1296;3011721;-72
2023/09/18 01:32:05;;;;;;;24.50;14.50;;;;;;;15.83;66.97;100218.67;78355;1296;3053384;-71
2023/09/18 01:34:41;;;;;;;26.30;14.90;;;;;;;15.81;67.11;100223.03;79457;1300;3011653;-68
2023/09/18 01:37:09;;;;;;;23.80;15.20;;;;;;;15.78;67.39;100219.13;78586;1298;3053901;-73
2023/09/18 01:39:36;;;;;;;25.60;14.40;;;;;;;15.79;66.75;100217.34;79875;1293;3012976;-67
2023/09/18 01:42:06;;;;;;;28.60;15.80;;;;;;;15.80;66.95;100221.32;79577;1292;3011530;-71
2023/09/18 01:44:34;;;;;;;28.10;15.70;;;;;;;15.78;67.30;100222.19;78469;1298;3055931;-65
2023/09/18 01:47:02;;;;;;;26.10;14.00;;;;;;;15.73;67.33;100219.48;79819;1293;3013196;-71
2023/09/18 01:49:31;;;;;;;27.20;14.00;;;;;;;15.71;67.31;100221.07;79601;1299;3011652;-69
2023/09/18 01:51:59;;;;;;;27.50;14.60;;;;;;;15.69;67.28;100220.48;78539;1298;3052469;-68
2023/09/18 01:54:26;;;;;;;25.60;13.50;;;;;;;15.69;67.41;100223.68;79874;1292;3018762;-69
2023/09/18 01:56:53;;;;;;;23.30;14.00;;;;;;;15.67;67.13;100224.87;79754;1292;3011531;-68
2023/09/18 01:59:21;;;;;;;24.30;13.00;;;;;;;15.69;66.72;100222.82;78379;1292;3055049;-69
2023/09/18 02:01:49;;;;;;;21.50;12.70;;;;;;;15.70;66.85;100223.25;79650;1293;3011850;-68
2023/09/18 02:04:17;;;;;;;23.70;13.70;;;;;;;15.70;66.76;100226.23;79767;1298;3012091;-71
2023/09/18 02:06:48;;;;;;;22.40;12.30;;;;;;;15.70;66.86;100227.48;78533;1295;3051393;-68
2023/09/18 02:09:18;;;;;;;17.90;12.40;;;;;;;15.69;66.72;100228.11;79898;1295;3011673;-71
2023/09/18 02:11:47;;;;;;;21.60;12.50;;;;;;;15.70;66.89;100229.80;78611;1293;3068907;-71
2023/09/18 02:14:14;;;;;;;20.70;12.40;;;;;;;15.67;66.92;100231.23;79877;1298;3013556;-72
2023/09/18 02:16:46;;;;;;;20.40;12.60;;;;;;;15.67;66.75;100232.44;80199;1296;3012913;-69
2023/09/18 02:19:13;;;;;;;20.40;11.90;;;;;;;15.66;67.29;100234.48;79489;1295;3052764;-67
2023/09/18 02:21:40;;;;;;;22.20;12.50;;;;;;;15.69;66.65;100233.23;80908;1298;3019145;-68
2023/09/18 02:24:07;;;;;;;21.90;12.80;;;;;;;15.73;66.54;100232.92;80762;1296;3011835;-66
2023/09/18 02:26:37;;;;;;;23.70;12.20;;;;;;;15.74;66.54;100233.38;78544;1291;3068621;-69
2023/09/18 02:29:10;;;;;;;17.40;11.10;;;;;;;15.74;66.57;100237.42;79649;1298;3013454;-69
2023/09/18 02:31:40;;;;;;;19.10;12.80;;;;;;;15.75;66.64;100233.68;78509;1293;3048106;-68
2023/09/18 02:34:07;;;;;;;27.40;12.80;;;;;;;15.73;66.86;100230.77;79658;1295;3013373;-66
2023/09/18 02:36:33;;;;;;;23.70;13.80;;;;;;;15.74;67.01;100230.02;79814;1295;3011599;-67
2023/09/18 02:39:02;;;;;;;22.50;12.20;;;;;;;15.73;66.92;100226.91;78454;1293;3052704;-70
2023/09/18 02:41:29;;;;;;;18.80;11.00;;;;;;;15.68;66.78;100225.46;79705;1292;3013467;-71
2023/09/18 02:43:55;;;;;;;15.80;10.90;;;;;;;15.65;66.57;100224.67;79765;1293;3011894;-69
2023/09/18 02:46:23;;;;;;;20.20;10.70;;;;;;;15.62;66.36;100224.30;78309;1301;3048781;-70
2023/09/18 02:48:51;;;;;;;16.30;9.40;;;;;;;15.63;65.64;100224.45;79850;1293;3014014;-72
2023/09/18 02:51:18;;;;;;;16.80;8.50;;;;;;;15.65;65.42;100224.14;79766;1293;3011544;-74
2023/09/18 02:53:46;;;;;;;23.30;9.10;;;;;;;15.66;64.98;100223.89;78428;1295;3052709;-72
2023/09/18 02:56:13;;;;;;;20.70;9.00;;;;;;;15.69;64.19;100227.55;79754;1298;3012855;-71
2023/09/18 02:58:40;;;;;;;19.10;8.20;;;;;;;15.74;63.85;100226.47;79632;1296;3012078;-71
2023/09/18 03:01:09;;;;;;;26.00;8.30;;;;;;;15.81;63.56;100228.17;78609;1293;3026191;-70
2023/09/18 03:03:36;;;;;;;21.30;7.60;;;;;;;15.87;62.91;100226.13;79551;1296;3012616;-68
2023/09/18 03:06:04;;;;;;;18.60;7.60;;;;;;;15.94;62.39;100227.23;79635;1300;3011514;-70
2023/09/18 03:08:32;;;;;;;24.80;7.30;;;;;;;16.00;62.15;100227.02;78463;1302;3052072;-72
2023/09/18 03:10:59;;;;;;;20.30;8.90;;;;;;;16.06;61.82;100229.05;79661;1298;3020602;-66
2023/09/18 03:13:30;;;;;;;21.90;8.70;;;;;;;16.11;61.74;100230.45;79407;1294;3013156;-71
2023/09/18 03:15:58;;;;;;;26.10;7.70;;;;;;;16.16;61.63;100229.44;78426;1301;3049986;-70
2023/09/18 03:18:25;;;;;;;23.30;8.00;;;;;;;16.19;61.68;100230.98;79621;1295;3018837;-72
2023/09/18 03:20:52;;;;;;;20.90;8.50;;;;;;;16.20;61.52;100230.66;79595;1299;3011602;-70
2023/09/18 03:23:20;;;;;;;25.70;9.60;;;;;;;16.22;61.70;100232.51;78502;1297;3026382;-70
2023/09/18 03:25:48;;;;;;;32.80;9.10;;;;;;;16.21;61.81;100232.73;79766;1294;3013214;-67
2023/09/18 03:28:14;;;;;;;28.50;8.60;;;;;;;16.22;61.63;100233.21;79562;1292;3011898;-67
2023/09/18 03:30:42;;;;;;;21.80;9.00;;;;;;;16.24;61.27;100231.48;78494;1297;3049353;-70
2023/09/18 03:33:09;;;;;;;26.60;8.80;;;;;;;16.27;61.30;100235.48;79637;1294;3013296;-67
2023/09/18 03:35:48;;;;;;;26.50;9.40;;;;;;;16.31;61.19;100237.88;79439;1301;3012715;-73
2023/09/18 03:38:18;;;;;;;28.70;9.70;;;;;;;16.34;61.43;100238.86;78664;1295;3054537;-69
2023/09/18 03:40:45;;;;;;;21.70;9.40;;;;;;;16.35;61.62;100234.58;79526;1295;3013413;-71
2023/09/18 03:43:12;;;;;;;20.20;9.90;;;;;;;16.36;61.91;100239.41;79852;1292;3011532;-66
2023/09/18 03:45:42;;;;;;;24.20;10.40;;;;;;;16.35;62.16;100238.79;78607;1293;3028061;-69
2023/09/18 03:48:11;;;;;;;25.90;10.50;;;;;;;16.33;62.97;100246.25;79596;1294;3011875;-72
2023/09/18 03:50:38;;;;;;;20.90;10.10;;;;;;;16.27;63.05;100247.51;78481;1297;3027011;-69
2023/09/18 03:53:06;;;;;;;21.30;10.10;;;;;;;16.22;63.73;100245.89;79521;1301;3012915;-72
2023/09/18 03:55:33;;;;;;;18.60;10.40;;;;;;;16.19;64.07;100244.59;79595;1299;3011602;-69
2023/09/18 03:58:01;;;;;;;18.50;11.20;;;;;;;16.15;64.65;100248.38;78369;1298;3052518;-71
2023/09/18 04:00:27;;;;;;;16.90;9.80;;;;;;;16.11;65.23;100246.87;79552;1295;3013196;-71
2023/09/18 04:02:54;;;;;;;22.20;11.70;;;;;;;16.08;65.55;100250.83;79741;1297;3013734;-65
2023/09/18 04:05:22;;;;;;;21.40;10.50;;;;;;;16.10;65.41;100254.39;78273;1301;3026546;-70
2023/09/18 04:07:49;;;;;;;19.80;12.20;;;;;;;16.09;65.66;100252.70;79702;1298;3013531;-69
2023/09/18 04:10:22;;;;;;;25.70;13.80;;;;;;;16.06;66.03;100252.89;79653;1295;3011831;-69
2023/09/18 04:13:05;;;;;;;28.50;14.60;;;;;;;16.07;66.50;100253.16;78287;1296;3051719;-67
2023/09/18 04:15:32;;;;;;;24.00;13.40;;;;;;;16.06;66.57;100252.34;79589;1296;3013257;-72
2023/09/18 04:17:58;;;;;;;26.80;15.70;;;;;;;16.08;66.62;100252.77;79509;1300;3011594;-74
2023/09/18 04:20:27;;;;;;;26.30;14.30;;;;;;;16.06;67.44;100250.23;78272;1298;3028377;-74
2023/09/18 04:23:26;;;;;;;27.30;14.20;;;;;;;16.06;67.61;100252.58;79443;1298;3013919;-68
2023/09/18 04:25:54;;;;;;;28.70;15.00;;;;;;;16.05;68.00;100256.33;78280;1301;3068645;-72
2023/09/18 04:28:22;;;;;;;27.30;14.20;;;;;;;16.07;67.64;100254.55;79510;1298;3013176;-70
2023/09/18 04:30:49;;;;;;;26.70;15.00;;;;;;;16.12;67.90;100255.32;79633;1295;3013985;-67
2023/09/18 04:33:17;;;;;;;26.40;15.80;;;;;;;16.16;68.40;100251.68;78271;1296;3052032;-67
2023/09/18 04:35:44;;;;;;;28.70;15.20;;;;;;;16.22;68.06;100255.17;79684;1297;3018989;-68
2023/09/18 04:38:10;;;;;;;24.60;13.10;;;;;;;16.28;67.96;100256.27;79656;1298;3011563;-68
2023/09/18 04:40:39;;;;;;;25.80;13.90;;;;;;;16.94;67.19;100254.87;78537;1292;3069373;-69
2023/09/18 04:43:07;;;;;;;26.50;15.50;;;;;;;17.56;65.63;100256.73;79662;1292;3013156;-70
2023/09/18 04:45:33;;;;;;;30.90;15.60;;;;;;;17.73;65.20;100250.79;79600;1292;3011489;-66
2023/09/18 04:48:01;;;;;;;29.00;17.40;;;;;;;17.70;65.15;100249.82;78256;1293;3053580;-69
2023/09/18 04:50:27;;;;;;;29.20;17.40;;;;;;;17.60;65.18;100247.37;79772;1301;3013819;-70
2023/09/18 04:52:55;;;;;;;32.10;17.70;;;;;;;17.53;65.13;100243.11;79575;1296;3011589;-70
2023/09/18 04:55:23;;;;;;;34.40;18.30;;;;;;;17.44;65.47;100242.94;78277;1300;3069447;-71
2023/09/18 04:57:50;;;;;;;31.80;18.10;;;;;;;17.37;65.50;100241.86;79666;1296;3018220;-69
2023/09/18 05:00:17;;;;;;;33.40;17.80;;;;;;;17.33;65.91;100241.15;79714;1293;3013157;-72
2023/09/18 05:02:45;;;;;;;31.50;17.50;;;;;;;17.30;65.94;100241.00;78560;1294;3053370;-66
2023/09/18 05:05:13;;;;;;;42.20;18.80;;;;;;;17.29;66.27;100243.05;79498;1301;3013665;-72
2023/09/18 05:07:40;;;;;;;39.10;20.30;;;;;;;17.28;66.23;100237.77;79592;1296;3012187;-71
2023/09/18 05:10:08;;;;;;;40.20;17.90;;;;;;;17.32;66.03;100241.98;78463;1295;3069149;-70
2023/09/18 05:12:35;;;;;;;39.70;18.60;;;;;;;17.34;66.50;100239.10;79729;1293;3015004;-69
2023/09/18 05:15:04;;;;;;;35.80;18.40;;;;;;;17.37;66.92;100241.04;77494;1293;3035806;-72
2023/09/18 05:17:46;;;;;;;43.40;18.80;;;;;;;17.39;67.11;100243.86;78450;1298;3052516;-71
2023/09/18 05:20:16;;;;;;;35.40;18.60;;;;;;;17.43;67.11;100245.64;78449;1298;3051087;-71
2023/09/18 05:22:43;;;;;;;31.10;19.10;;;;;;;17.49;66.49;100247.05;79750;1298;3011592;-68
2023/09/18 05:25:10;;;;;;;34.30;19.10;;;;;;;17.56;66.34;100242.55;79905;1295;3011829;-69
2023/09/18 05:27:44;;;;;;;39.40;18.80;;;;;;;17.62;66.58;100248.52;78408;1298;3051964;-72
2023/09/18 05:30:21;;;;;;;35.90;18.20;;;;;;;17.68;66.22;100248.18;79090;1295;3011909;-70
2023/09/18 05:32:49;;;;;;;41.00;17.50;;;;;;;17.76;65.96;100247.94;78401;1297;3056133;-68
2023/09/18 05:35:16;;;;;;;41.90;19.60;;;;;;;17.84;65.91;100251.39;79770;1293;3013195;-69
2023/09/18 05:37:43;;;;;;;36.00;18.40;;;;;;;17.91;65.76;100251.34;79770;1296;3013865;-70
2023/09/18 05:40:13;;;;;;;34.10;19.80;;;;;;;18.01;65.70;100253.81;78437;1297;3025831;-69
2023/09/18 05:42:43;;;;;;;34.70;18.50;;;;;;;18.08;66.43;100250.42;79715;1298;3013366;-68
2023/09/18 05:45:12;;;;;;;36.00;19.80;;;;;;;18.15;65.99;100249.81;78563;1298;3069302;-69
2023/09/18 05:47:39;;;;;;;27.50;15.20;;;;;;;18.26;66.37;100251.27;79680;1292;3013141;-71
2023/09/18 05:50:09;;;;;;;37.70;16.20;;;;;;;18.91;66.75;100248.10;79662;1298;3013080;-70
2023/09/18 05:52:37;;;;;;;35.10;17.50;;;;;;;19.61;65.11;100245.07;78510;1293;3052402;-68
2023/09/18 05:55:04;;;;;;;29.30;18.50;;;;;;;19.84;64.29;100244.02;79807;1298;3012851;-69
2023/09/18 05:57:31;;;;;;;37.30;21.20;;;;;;;19.86;64.29;100246.19;79695;1292;3013354;-71
2023/09/18 05:59:58;;;;;;;35.60;21.20;;;;;;;19.76;64.60;100245.39;78448;1297;3025943;-71
2023/09/18 06:02:25;;;;;;;40.40;21.00;;;;;;;19.66;64.92;100241.16;79771;1295;3012847;-71
2023/09/18 06:04:57;;;;;;;42.40;23.30;;;;;;;19.62;65.10;100240.41;79737;1292;3013499;-70
2023/09/18 06:07:27;;;;;;;43.80;22.30;;;;;;;19.59;65.41;100240.61;78414;1297;3052968;-71
2023/09/18 06:09:53;;;;;;;37.00;22.50;;;;;;;19.58;65.43;100241.77;79672;1293;3013119;-69
2023/09/18 06:12:20;;;;;;;37.50;22.20;;;;;;;19.58;65.03;100244.83;79694;1298;3011923;-68
2023/09/18 06:14:49;;;;;;;36.60;21.80;;;;;;;19.59;65.33;100244.58;78398;1293;3068820;-68
2023/09/18 06:17:16;;;;;;;38.40;22.10;;;;;;;19.58;65.34;100248.53;79792;1293;3013361;-71
2023/09/18 06:19:42;;;;;;;36.40;21.70;;;;;;;19.59;65.47;100249.89;79734;1293;3011423;-70
2023/09/18 06:22:10;;;;;;;36.20;20.70;;;;;;;19.63;64.96;100246.67;78554;1293;3052892;-71
2023/09/18 06:24:37;;;;;;;37.50;20.00;;;;;;;19.68;64.82;100249.61;79628;1299;3013983;-71
2023/09/18 06:27:04;;;;;;;35.30;20.30;;;;;;;19.73;64.41;100249.20;79686;1298;3011557;-70
2023/09/18 06:29:33;;;;;;;34.60;17.70;;;;;;;19.78;63.29;100247.86;78502;1293;3068623;-72
2023/09/18 06:32:00;;;;;;;31.10;17.70;;;;;;;19.86;62.51;100249.02;79665;1294;3013105;-70
2023/09/18 06:34:27;;;;;;;26.30;14.80;;;;;;;19.93;61.59;100252.81;79677;1293;3011830;-69
2023/09/18 06:36:55;;;;;;;22.50;15.20;;;;;;;19.99;60.52;100254.45;78456;1292;3053252;-69
2023/09/18 06:39:23;;;;;;;32.60;15.40;;;;;;;20.03;60.11;100255.73;79802;1297;3013243;-71
2023/09/18 06:41:50;;;;;;;31.50;16.60;;;;;;;20.05;60.84;100257.15;79966;1295;3011560;-74
2023/09/18 06:44:21;;;;;;;35.00;16.70;;;;;;;20.04;61.51;100263.08;78587;1292;3068249;-69
2023/09/18 06:46:48;;;;;;;31.80;16.80;;;;;;;20.09;61.22;100263.91;80155;1292;3014017;-72
2023/09/18 06:49:14;;;;;;;34.20;16.80;;;;;;;20.13;61.25;100267.25;79739;1292;3011661;-69
2023/09/18 06:51:43;;;;;;;30.70;15.90;;;;;;;20.22;61.15;100271.69;78435;1292;3052848;-71
2023/09/18 06:54:10;;;;;;;23.50;14.40;;;;;;;20.28;59.76;100266.34;79839;1295;3014874;-69
2023/09/18 06:56:36;;;;;;;24.20;12.80;;;;;;;20.32;58.85;100270.27;79740;1296;3011574;-70
2023/09/18 06:59:04;;;;;;;22.10;12.30;;;;;;;20.35;58.15;100265.68;78453;1292;3068727;-72
2023/09/18 07:01:33;;;;;;;25.30;12.30;;;;;;;20.41;56.99;100268.54;79500;1292;3011791;-70
2023/09/18 07:04:00;;;;;;;18.10;10.10;;;;;;;20.50;56.79;100268.64;79730;1293;3011674;-70
2023/09/18 07:06:28;;;;;;;13.50;10.40;;;;;;;20.56;55.41;100267.91;78267;1293;3054348;-72
2023/09/18 07:08:54;;;;;;;14.50;8.80;;;;;;;20.60;54.23;100265.62;79933;1298;3013026;-71
2023/09/18 07:11:21;;;;;;;12.90;8.30;;;;;;;20.67;54.31;100268.70;79838;1292;3011943;-73
2023/09/18 07:13:49;;;;;;;15.90;7.70;;;;;;;20.76;53.85;100269.14;78835;1297;3026540;-73
2023/09/18 07:16:15;;;;;;;12.60;7.30;;;;;;;20.86;53.22;100270.41;80452;1293;3018708;-72
2023/09/18 07:18:43;;;;;;;10.00;6.40;;;;;;;20.97;53.44;100265.86;80306;1293;3011738;-72
2023/09/18 07:21:11;;;;;;;12.70;6.00;;;;;;;21.07;51.11;100268.16;78524;1298;3052557;-73
2023/09/18 07:23:40;;;;;;;9.90;6.70;;;;;;;21.15;50.24;100266.23;79878;1295;3014139;-73
2023/09/18 07:26:07;;;;;;;9.30;5.30;;;;;;;21.22;49.62;100269.08;79800;1295;3013010;-74
2023/09/18 07:28:35;;;;;;;14.20;6.20;;;;;;;21.31;50.38;100270.56;78474;1295;3068521;-76
2023/09/18 07:31:06;;;;;;;12.40;6.30;;;;;;;21.40;50.27;100267.59;79837;1292;3021350;-75
2023/09/18 07:33:34;;;;;;;14.30;6.60;;;;;;;21.48;50.02;100266.13;78584;1293;3047037;-74
2023/09/18 07:36:01;;;;;;;14.80;5.60;;;;;;;21.50;49.26;100262.98;79787;1295;3019475;-76
2023/09/18 07:38:27;;;;;;;13.00;6.50;;;;;;;21.56;50.02;100259.33;79669;1292;3012010;-75
2023/09/18 07:40:56;;;;;;;17.80;6.30;;;;;;;21.57;49.03;100257.11;78557;1298;3026033;-73
2023/09/18 07:43:24;;;;;;;27.20;8.00;;;;;;;21.65;49.19;100258.38;79768;1297;3011937;-74
2023/09/18 07:45:54;;;;;;;79.50;14.70;;;;;;;21.71;48.35;100258.48;79209;1297;3011527;-74
2023/09/18 07:48:24;;;;;;;83.60;16.70;;;;;;;21.77;47.65;100258.59;79734;1293;3014594;-76
2023/09/18 07:50:52;;;;;;;67.00;13.10;;;;;;;21.85;46.82;100259.66;78883;1293;3051892;-74
2023/09/18 07:53:18;;;;;;;66.10;12.20;;;;;;;21.94;46.36;100259.65;80014;1292;3018451;-77
2023/09/18 07:55:45;;;;;;;98.20;16.70;;;;;;;22.03;45.35;100258.45;79886;1292;3011555;-78
2023/09/18 07:58:13;;;;;;;79.10;14.10;;;;;;;22.12;45.13;100260.43;78698;1292;3026610;-76
2023/09/18 08:00:41;;;;;;;57.40;11.20;;;;;;;22.25;44.88;100261.02;79733;1293;3012911;-76
2023/09/18 08:03:07;;;;;;;37.00;8.30;;;;;;;22.31;43.34;100255.80;79736;1293;3011711;-72
2023/09/18 08:05:35;;;;;;;44.10;8.80;;;;;;;22.32;43.67;100254.83;78623;1298;3051939;-72
2023/09/18 08:08:05;;;;;;;28.30;7.00;;;;;;;22.40;43.89;100255.83;79722;1297;3013565;-72
2023/09/18 08:10:37;;;;;;;37.00;6.40;;;;;;;22.50;42.69;100252.86;78606;1295;3053031;-72
2023/09/18 08:13:04;;;;;;;22.40;5.80;;;;;;;22.60;42.44;100247.53;79885;1292;3013159;-74
2023/09/18 08:15:32;;;;;;;12.00;4.30;;;;;;;22.69;41.93;100249.92;79151;1293;3011764;-75
2023/09/18 08:17:59;;;;;;;8.50;4.00;;;;;;;22.76;40.74;100253.68;79875;1293;3012983;-75
2023/09/18 08:20:26;;;;;;;11.30;4.50;;;;;;;22.87;40.61;100250.32;79912;1296;3012421;-75
2023/09/18 08:22:54;;;;;;;5.70;3.40;;;;;;;22.94;39.78;100251.16;78334;1297;3050261;-74
2023/09/18 08:25:21;;;;;;;8.40;3.50;;;;;;;23.00;39.84;100244.66;79962;1294;3013208;-74
2023/09/18 08:27:48;;;;;;;8.90;3.50;;;;;;;23.02;38.63;100243.92;79937;1298;3011561;-71
2023/09/18 08:30:17;;;;;;;9.20;3.70;;;;;;;23.13;38.70;100241.25;78895;1298;3026380;-81
2023/09/18 08:32:44;;;;;;;10.20;3.60;;;;;;;23.25;38.62;100243.11;79780;1293;3011613;-73
2023/09/18 08:35:10;;;;;;;9.70;2.70;;;;;;;23.29;37.33;100241.77;79665;1295;3011738;-76
2023/09/18 08:37:41;;;;;;;6.20;3.10;;;;;;;23.29;37.64;100240.97;78634;1296;3049939;-76
2023/09/18 08:40:13;;;;;;;6.90;3.00;;;;;;;23.31;37.50;100236.09;79902;1295;3011982;-74
2023/09/18 08:42:47;;;;;;;7.20;3.10;;;;;;;23.45;37.26;100239.10;78534;1298;3052187;-76
2023/09/18 08:45:27;;;;;;;8.40;2.70;;;;;;;23.57;36.33;100238.25;79844;1292;3013125;-73
2023/09/18 08:47:55;;;;;;;10.10;2.40;;;;;;;23.65;35.57;100240.77;78412;1295;3051533;-72
2023/09/18 08:50:22;;;;;;;6.80;2.30;;;;;;;23.74;35.33;100241.70;79659;1298;3018469;-74
2023/09/18 08:52:49;;;;;;;5.10;2.60;;;;;;;23.85;34.28;100236.27;79890;1292;3013366;-71
2023/09/18 08:55:17;;;;;;;7.40;2.70;;;;;;;23.88;33.01;100234.14;78399;1293;3026340;-69
2023/09/18 08:57:44;;;;;;;5.60;2.40;;;;;;;23.89;33.38;100232.77;79772;1295;3013304;-71
2023/09/18 09:00:16;;;;;;;4.50;2.10;;;;;;;23.97;33.24;100230.70;79588;1296;3011635;-66
2023/09/18 09:02:44;;;;;;;5.50;2.20;;;;;;;24.11;33.13;100227.29;78623;1292;3050210;-70
2023/09/18 09:05:11;;;;;;;6.80;2.30;;;;;;;24.20;32.82;100226.35;79676;1294;3011931;-74
2023/09/18 09:07:37;;;;;;;6.40;2.60;;;;;;;24.29;33.09;100226.94;79913;1293;3011970;-74
2023/09/18 09:10:06;;;;;;;7.50;2.60;;;;;;;24.39;32.23;100222.17;78606;1298;3051205;-73
2023/09/18 09:12:57;;;;;;;11.40;3.00;;;;;;;24.44;32.94;100222.74;80021;1295;3013467;-75
2023/09/18 09:15:32;;;;;;;6.80;2.40;;;;;;;24.53;32.42;100223.23;78835;1292;3071310;-76
2023/09/18 09:18:05;;;;;;;9.50;3.00;;;;;;;24.63;32.05;100220.31;79279;1292;3011737;-75
2023/09/18 09:20:32;;;;;;;9.90;3.00;;;;;;;24.70;32.16;100222.27;79817;1293;3011916;-72
2023/09/18 09:23:04;;;;;;;10.20;2.80;;;;;;;24.77;32.04;100222.61;78723;1293;3056673;-77
2023/09/18 09:25:31;;;;;;;4.70;2.50;;;;;;;24.88;30.91;100213.30;79885;1298;3011451;-77
2023/09/18 09:28:01;;;;;;;7.20;3.60;;;;;;;24.94;31.56;100212.73;78520;1293;3053398;-77
2023/09/18 09:30:28;;;;;;;7.00;2.80;;;;;;;25.00;32.84;100211.02;79996;1292;3013246;-77
2023/09/18 09:32:56;;;;;;;8.10;2.90;;;;;;;25.00;32.54;100209.84;80022;1295;3011903;-73
2023/09/18 09:35:28;;;;;;;7.10;2.80;;;;;;;24.89;32.51;100211.13;78768;1293;3068183;-75
2023/09/18 09:38:00;;;;;;;10.70;3.20;;;;;;;24.99;33.07;100209.81;79958;1296;3011609;-72
2023/09/18 09:40:29;;;;;;;9.60;3.30;;;;;;;25.07;32.81;100207.31;78610;1293;3056666;-74
2023/09/18 09:43:04;;;;;;;9.00;3.30;;;;;;;25.15;32.83;100209.65;79940;1293;3013793;-78
2023/09/18 09:45:36;;;;;;;10.90;3.80;;;;;;;25.10;33.21;100206.54;78517;1297;3048920;-74
2023/09/18 09:48:05;;;;;;;7.60;3.00;;;;;;;25.06;32.85;100205.67;79820;1295;3013338;-74
2023/09/18 09:50:33;;;;;;;9.20;3.10;;;;;;;25.00;32.15;100205.40;78837;1298;3051927;-78
2023/09/18 09:52:59;;;;;;;8.50;2.90;;;;;;;25.07;31.85;100205.30;79984;1293;3013181;-75
2023/09/18 09:55:31;;;;;;;6.50;2.70;;;;;;;25.16;31.56;100204.18;79984;1296;3013457;-74
2023/09/18 09:58:03;;;;;;;7.10;3.20;;;;;;;25.24;31.70;100203.98;78810;1295;3049877;-76
2023/09/18 18:38:20;;;;;;;7.60;4.40;;;;;;;22.31;34.72;100062.69;80535;1300;3013675;-78
2023/09/18 18:40:59;;;;;;;7.00;5.10;;;;;;;22.28;34.88;100061.55;80033;1299;3015315;-79
2023/09/18 18:43:34;;;;;;;10.60;4.60;;;;;;;22.24;35.06;100061.59;78467;1298;3052545;-80
2023/09/18 18:46:00;;;;;;;11.90;4.70;;;;;;;22.21;35.26;100061.34;79749;1300;3013383;-78
2023/09/18 18:48:27;;;;;;;6.30;4.50;;;;;;;22.18;35.15;100057.73;79895;1297;3012285;-77
2023/09/18 18:51:10;;;;;;;10.40;5.10;;;;;;;22.16;35.01;100059.73;77681;1298;3150592;-77
2023/09/18 18:53:38;;;;;;;5.90;4.40;;;;;;;22.13;35.30;100057.66;78702;1294;3053257;-77
2023/09/18 18:56:05;;;;;;;10.00;4.60;;;;;;;22.12;35.23;100053.16;80101;1298;3013644;-73
2023/09/18 18:58:32;;;;;;;7.90;4.40;;;;;;;22.09;35.20;100053.23;79763;1295;3011825;-73
2023/09/18 19:01:03;;;;;;;12.70;4.60;;;;;;;22.07;35.25;100053.27;78463;1294;3028159;-77
2023/09/18 19:03:31;;;;;;;7.80;4.70;;;;;;;22.05;35.01;100054.38;79730;1294;3013669;-74
2023/09/18 19:06:02;;;;;;;6.50;3.90;;;;;;;22.03;35.04;100055.48;78538;1295;3055506;-72
2023/09/18 19:08:30;;;;;;;5.50;4.20;;;;;;;22.00;35.04;100053.11;79607;1298;3013009;-78
2023/09/18 19:10:59;;;;;;;7.30;4.30;;;;;;;21.98;34.97;100055.61;78444;1298;3026496;-76
2023/09/18 19:13:26;;;;;;;6.60;3.80;;;;;;;21.95;34.97;100051.40;79718;1298;3011630;-74
2023/09/18 19:15:58;;;;;;;5.30;3.90;;;;;;;21.93;34.90;100052.92;79985;1294;3011821;-78
2023/09/18 19:18:29;;;;;;;8.90;4.30;;;;;;;21.90;34.98;100050.15;78449;1295;3069041;-75
2023/09/18 19:20:56;;;;;;;9.90;4.60;;;;;;;21.88;35.04;100053.58;80080;1298;3012823;-77
2023/09/18 19:23:25;;;;;;;10.70;4.80;;;;;;;21.85;35.03;100057.27;79368;1295;3011449;-76
2023/09/18 19:25:54;;;;;;;13.40;5.50;;;;;;;21.75;35.27;100058.66;79611;1298;3015313;-78
2023/09/18 19:28:26;;;;;;;11.10;5.20;;;;;;;21.59;36.57;100057.98;79547;1294;3011616;-78
2023/09/18 19:30:58;;;;;;;14.10;6.80;;;;;;;21.39;37.92;100059.94;78729;1294;3053076;-78
2023/09/18 19:33:32;;;;;;;17.10;7.80;;;;;;;21.20;38.76;100060.98;80001;1294;3011745;-78
2023/09/18 19:36:03;;;;;;;18.10;7.70;;;;;;;21.07;39.41;100058.67;78360;1294;3069818;-77
2023/09/18 19:38:33;;;;;;;20.70;7.80;;;;;;;20.94;39.96;100060.84;79751;1296;3011953;-75
2023/09/18 19:41:10;;;;;;;17.00;6.90;;;;;;;20.90;40.09;100060.84;78756;1294;3048788;-78
2023/09/18 19:43:38;;;;;;;15.20;6.40;;;;;;;20.83;40.80;100064.38;78487;1294;3052451;-76